Terminal Aerodrome Forecast
Issued by NWS

Home | Current Version | Previous Version | Text Only | Print | Product List | Glossary Off
Versions: 1 2 3 4 5 6 7 8 9 10 11 12 13 14 15 16 17

000
FTUS42 KMHX 210535
TAFOAJ
TAF
KOAJ 210535Z 2106/2206 20003KT 6SM -SHRA SCT005 BKN025
      TEMPO 2107/2110 5SM BR BKN005
     FM211100 VRB03KT 6SM -SHRA OVC020
     FM211600 25006KT P6SM OVC035
      AMD LTD TO CLD VIS AND WIND=

USA.gov is the U.S. government's official web portal to all federal, state and local government web resources and services.